sensor_id;sensor_type;location;lat;lon;timestamp;P1;durP1;ratioP1;P2;durP2;ratioP2
7003;SDS011;3542;48.812;9.146;2023-05-16T00:00:22;16.33;;;10.30;;
7003;SDS011;3542;48.812;9.146;2023-05-16T00:02:52;14.33;;;11.27;;
7003;SDS011;3542;48.812;9.146;2023-05-16T00:05:18;11.73;;;10.20;;
7003;SDS011;3542;48.812;9.146;2023-05-16T00:07:44;13.20;;;11.73;;
7003;SDS011;3542;48.812;9.146;2023-05-16T00:10:11;14.47;;;11.47;;
7003;SDS011;3542;48.812;9.146;2023-05-16T00:12:37;11.60;;;10.40;;
7003;SDS011;3542;48.812;9.146;2023-05-16T00:15:04;13.70;;;11.00;;
7003;SDS011;3542;48.812;9.146;2023-05-16T00:17:32;13.70;;;12.10;;
7003;SDS011;3542;48.812;9.146;2023-05-16T00:19:59;15.77;;;12.00;;
7003;SDS011;3542;48.812;9.146;2023-05-16T00:22:32;12.83;;;11.53;;
7003;SDS011;3542;48.812;9.146;2023-05-16T00:24:58;18.30;;;12.37;;
7003;SDS011;3542;48.812;9.146;2023-05-16T00:27:23;17.60;;;14.40;;
7003;SDS011;3542;48.812;9.146;2023-05-16T00:29:49;16.30;;;14.60;;
7003;SDS011;3542;48.812;9.146;2023-05-16T00:32:15;23.00;;;17.20;;
7003;SDS011;3542;48.812;9.146;2023-05-16T00:34:41;21.87;;;17.63;;
7003;SDS011;3542;48.812;9.146;2023-05-16T00:37:07;21.93;;;18.90;;
7003;SDS011;3542;48.812;9.146;2023-05-16T00:39:32;31.00;;;18.40;;
7003;SDS011;3542;48.812;9.146;2023-05-16T00:41:58;21.37;;;18.50;;
7003;SDS011;3542;48.812;9.146;2023-05-16T00:44:23;26.77;;;20.20;;
7003;SDS011;3542;48.812;9.146;2023-05-16T00:46:49;27.40;;;19.90;;
7003;SDS011;3542;48.812;9.146;2023-05-16T00:49:14;25.23;;;19.47;;
7003;SDS011;3542;48.812;9.146;2023-05-16T00:51:40;24.30;;;20.57;;
7003;SDS011;3542;48.812;9.146;2023-05-16T00:54:06;25.37;;;20.47;;
7003;SDS011;3542;48.812;9.146;2023-05-16T00:56:32;29.77;;;20.90;;
7003;SDS011;3542;48.812;9.146;2023-05-16T00:58:57;31.40;;;22.80;;
7003;SDS011;3542;48.812;9.146;2023-05-16T02:32:00;43.90;;;30.30;;
7003;SDS011;3542;48.812;9.146;2023-05-16T02:34:26;47.47;;;31.13;;
7003;SDS011;3542;48.812;9.146;2023-05-16T02:36:53;49.57;;;33.60;;
7003;SDS011;3542;48.812;9.146;2023-05-16T02:39:19;55.67;;;33.50;;
7003;SDS011;3542;48.812;9.146;2023-05-16T02:41:44;51.30;;;30.53;;
7003;SDS011;3542;48.812;9.146;2023-05-16T02:44:10;51.20;;;32.87;;
7003;SDS011;3542;48.812;9.146;2023-05-16T02:46:35;53.40;;;33.70;;
7003;SDS011;3542;48.812;9.146;2023-05-16T02:49:01;49.30;;;32.43;;
7003;SDS011;3542;48.812;9.146;2023-05-16T02:51:27;51.07;;;33.50;;
7003;SDS011;3542;48.812;9.146;2023-05-16T02:53:53;65.77;;;34.40;;
7003;SDS011;3542;48.812;9.146;2023-05-16T02:56:21;62.93;;;38.17;;
7003;SDS011;3542;48.812;9.146;2023-05-16T02:58:47;53.90;;;34.87;;
7003;SDS011;3542;48.812;9.146;2023-05-16T03:01:13;55.83;;;35.40;;
7003;SDS011;3542;48.812;9.146;2023-05-16T03:03:40;48.40;;;32.47;;
7003;SDS011;3542;48.812;9.146;2023-05-16T03:06:06;55.40;;;32.27;;
7003;SDS011;3542;48.812;9.146;2023-05-16T03:08:32;60.37;;;34.97;;
7003;SDS011;3542;48.812;9.146;2023-05-16T03:10:59;57.90;;;34.70;;
7003;SDS011;3542;48.812;9.146;2023-05-16T03:13:24;53.07;;;33.13;;
7003;SDS011;3542;48.812;9.146;2023-05-16T03:15:50;63.63;;;35.50;;
7003;SDS011;3542;48.812;9.146;2023-05-16T03:18:15;61.33;;;33.77;;
7003;SDS011;3542;48.812;9.146;2023-05-16T03:20:41;58.70;;;33.70;;
7003;SDS011;3542;48.812;9.146;2023-05-16T03:23:06;60.87;;;35.30;;
7003;SDS011;3542;48.812;9.146;2023-05-16T03:25:35;59.60;;;35.73;;
7003;SDS011;3542;48.812;9.146;2023-05-16T03:28:01;59.90;;;36.60;;
7003;SDS011;3542;48.812;9.146;2023-05-16T03:30:27;62.40;;;37.80;;
7003;SDS011;3542;48.812;9.146;2023-05-16T03:32:53;62.03;;;39.50;;
7003;SDS011;3542;48.812;9.146;2023-05-16T03:35:19;68.70;;;39.57;;
7003;SDS011;3542;48.812;9.146;2023-05-16T03:37:45;67.93;;;39.40;;
7003;SDS011;3542;48.812;9.146;2023-05-16T03:40:10;70.50;;;38.33;;
7003;SDS011;3542;48.812;9.146;2023-05-16T03:42:36;65.83;;;39.37;;
7003;SDS011;3542;48.812;9.146;2023-05-16T03:45:03;74.53;;;39.90;;
7003;SDS011;3542;48.812;9.146;2023-05-16T03:47:30;72.97;;;42.07;;
7003;SDS011;3542;48.812;9.146;2023-05-16T03:49:56;78.23;;;41.47;;
7003;SDS011;3542;48.812;9.146;2023-05-16T03:52:21;74.60;;;42.77;;
7003;SDS011;3542;48.812;9.146;2023-05-16T03:54:47;79.30;;;43.50;;
7003;SDS011;3542;48.812;9.146;2023-05-16T03:57:13;81.80;;;44.87;;
7003;SDS011;3542;48.812;9.146;2023-05-16T03:59:38;82.83;;;44.13;;
7003;SDS011;3542;48.812;9.146;2023-05-16T04:02:05;85.37;;;44.17;;
7003;SDS011;3542;48.812;9.146;2023-05-16T04:04:31;84.00;;;44.17;;
7003;SDS011;3542;48.812;9.146;2023-05-16T04:06:57;81.77;;;44.90;;
7003;SDS011;3542;48.812;9.146;2023-05-16T04:09:22;77.53;;;42.87;;
7003;SDS011;3542;48.812;9.146;2023-05-16T04:11:48;86.47;;;43.50;;
7003;SDS011;3542;48.812;9.146;2023-05-16T04:14:14;79.43;;;44.40;;
7003;SDS011;3542;48.812;9.146;2023-05-16T04:16:40;75.23;;;41.83;;
7003;SDS011;3542;48.812;9.146;2023-05-16T04:19:06;82.03;;;46.50;;
7003;SDS011;3542;48.812;9.146;2023-05-16T04:21:31;81.13;;;42.97;;
7003;SDS011;3542;48.812;9.146;2023-05-16T04:24:00;75.80;;;41.90;;
7003;SDS011;3542;48.812;9.146;2023-05-16T04:26:26;81.27;;;42.10;;
7003;SDS011;3542;48.812;9.146;2023-05-16T04:28:52;81.47;;;43.03;;
7003;SDS011;3542;48.812;9.146;2023-05-16T04:31:17;86.83;;;41.83;;
7003;SDS011;3542;48.812;9.146;2023-05-16T04:33:43;71.77;;;39.17;;
7003;SDS011;3542;48.812;9.146;2023-05-16T04:36:08;78.13;;;40.00;;
7003;SDS011;3542;48.812;9.146;2023-05-16T04:38:34;73.90;;;42.97;;
7003;SDS011;3542;48.812;9.146;2023-05-16T04:40:59;73.80;;;40.90;;
7003;SDS011;3542;48.812;9.146;2023-05-16T04:43:27;75.67;;;41.60;;
7003;SDS011;3542;48.812;9.146;2023-05-16T04:45:52;73.40;;;40.53;;
7003;SDS011;3542;48.812;9.146;2023-05-16T04:48:18;73.67;;;41.20;;
7003;SDS011;3542;48.812;9.146;2023-05-16T04:50:43;77.10;;;43.67;;
7003;SDS011;3542;48.812;9.146;2023-05-16T04:53:09;80.43;;;43.37;;
7003;SDS011;3542;48.812;9.146;2023-05-16T04:55:34;75.47;;;42.07;;
7003;SDS011;3542;48.812;9.146;2023-05-16T04:58:00;78.17;;;42.43;;
7003;SDS011;3542;48.812;9.146;2023-05-16T05:00:26;84.53;;;45.03;;
7003;SDS011;3542;48.812;9.146;2023-05-16T05:02:52;70.30;;;41.03;;
7003;SDS011;3542;48.812;9.146;2023-05-16T05:05:17;70.83;;;40.93;;
7003;SDS011;3542;48.812;9.146;2023-05-16T05:07:43;72.90;;;41.47;;
7003;SDS011;3542;48.812;9.146;2023-05-16T05:10:08;75.13;;;42.23;;
7003;SDS011;3542;48.812;9.146;2023-05-16T05:12:35;73.43;;;41.33;;
7003;SDS011;3542;48.812;9.146;2023-05-16T05:15:01;74.13;;;41.00;;
7003;SDS011;3542;48.812;9.146;2023-05-16T05:17:27;71.67;;;40.80;;
7003;SDS011;3542;48.812;9.146;2023-05-16T05:19:53;66.60;;;39.43;;
7003;SDS011;3542;48.812;9.146;2023-05-16T05:22:19;64.77;;;37.57;;
7003;SDS011;3542;48.812;9.146;2023-05-16T05:24:45;67.53;;;38.10;;
7003;SDS011;3542;48.812;9.146;2023-05-16T05:27:13;72.10;;;43.43;;
7003;SDS011;3542;48.812;9.146;2023-05-16T05:29:39;68.17;;;39.53;;
7003;SDS011;3542;48.812;9.146;2023-05-16T05:32:05;67.30;;;39.40;;
7003;SDS011;3542;48.812;9.146;2023-05-16T05:34:33;68.37;;;40.10;;
7003;SDS011;3542;48.812;9.146;2023-05-16T05:36:59;69.37;;;42.90;;
7003;SDS011;3542;48.812;9.146;2023-05-16T05:39:24;72.30;;;40.77;;
7003;SDS011;3542;48.812;9.146;2023-05-16T05:41:53;71.40;;;40.47;;
7003;SDS011;3542;48.812;9.146;2023-05-16T05:44:19;68.90;;;38.70;;
7003;SDS011;3542;48.812;9.146;2023-05-16T05:46:44;79.30;;;41.53;;
7003;SDS011;3542;48.812;9.146;2023-05-16T05:49:10;70.80;;;39.80;;
7003;SDS011;3542;48.812;9.146;2023-05-16T05:51:36;68.03;;;39.50;;
7003;SDS011;3542;48.812;9.146;2023-05-16T05:54:02;65.47;;;40.00;;
7003;SDS011;3542;48.812;9.146;2023-05-16T05:56:28;71.77;;;40.60;;
7003;SDS011;3542;48.812;9.146;2023-05-16T05:58:53;68.10;;;40.00;;
7003;SDS011;3542;48.812;9.146;2023-05-16T06:01:19;67.43;;;39.70;;
7003;SDS011;3542;48.812;9.146;2023-05-16T06:03:47;71.20;;;39.00;;
7003;SDS011;3542;48.812;9.146;2023-05-16T06:06:12;67.20;;;41.97;;
7003;SDS011;3542;48.812;9.146;2023-05-16T06:08:39;65.47;;;38.70;;
7003;SDS011;3542;48.812;9.146;2023-05-16T06:11:05;67.00;;;39.73;;
7003;SDS011;3542;48.812;9.146;2023-05-16T06:13:30;65.40;;;36.60;;
7003;SDS011;3542;48.812;9.146;2023-05-16T06:15:56;67.20;;;34.47;;
7003;SDS011;3542;48.812;9.146;2023-05-16T06:18:21;57.53;;;36.07;;
7003;SDS011;3542;48.812;9.146;2023-05-16T06:20:47;63.23;;;37.30;;
7003;SDS011;3542;48.812;9.146;2023-05-16T06:23:12;57.40;;;36.10;;
7003;SDS011;3542;48.812;9.146;2023-05-16T06:25:38;66.90;;;37.10;;
7003;SDS011;3542;48.812;9.146;2023-05-16T06:28:03;59.43;;;35.23;;
7003;SDS011;3542;48.812;9.146;2023-05-16T06:30:29;53.97;;;33.80;;
7003;SDS011;3542;48.812;9.146;2023-05-16T06:32:54;60.43;;;33.73;;
7003;SDS011;3542;48.812;9.146;2023-05-16T06:35:20;69.27;;;35.60;;
7003;SDS011;3542;48.812;9.146;2023-05-16T06:37:45;54.40;;;33.00;;
7003;SDS011;3542;48.812;9.146;2023-05-16T06:40:11;56.00;;;33.03;;
7003;SDS011;3542;48.812;9.146;2023-05-16T06:42:37;56.27;;;34.33;;
7003;SDS011;3542;48.812;9.146;2023-05-16T06:45:04;51.17;;;32.13;;
7003;SDS011;3542;48.812;9.146;2023-05-16T06:47:30;54.97;;;33.73;;
7003;SDS011;3542;48.812;9.146;2023-05-16T06:49:55;55.13;;;33.90;;
7003;SDS011;3542;48.812;9.146;2023-05-16T06:52:21;51.90;;;31.73;;
7003;SDS011;3542;48.812;9.146;2023-05-16T06:54:46;48.53;;;33.30;;
7003;SDS011;3542;48.812;9.146;2023-05-16T06:57:12;46.30;;;30.53;;
7003;SDS011;3542;48.812;9.146;2023-05-16T06:59:37;42.70;;;28.77;;
7003;SDS011;3542;48.812;9.146;2023-05-16T07:02:03;45.20;;;29.50;;
7003;SDS011;3542;48.812;9.146;2023-05-16T07:04:29;44.57;;;28.63;;
7003;SDS011;3542;48.812;9.146;2023-05-16T07:06:55;40.30;;;27.40;;
7003;SDS011;3542;48.812;9.146;2023-05-16T07:09:20;40.97;;;27.20;;
7003;SDS011;3542;48.812;9.146;2023-05-16T07:11:46;42.53;;;26.57;;
7003;SDS011;3542;48.812;9.146;2023-05-16T07:14:11;39.57;;;24.43;;
7003;SDS011;3542;48.812;9.146;2023-05-16T07:16:37;33.77;;;23.10;;
7003;SDS011;3542;48.812;9.146;2023-05-16T07:19:02;28.03;;;20.40;;
7003;SDS011;3542;48.812;9.146;2023-05-16T07:21:28;28.77;;;20.30;;
7003;SDS011;3542;48.812;9.146;2023-05-16T07:23:54;27.87;;;18.30;;
7003;SDS011;3542;48.812;9.146;2023-05-16T07:26:19;31.40;;;18.10;;
7003;SDS011;3542;48.812;9.146;2023-05-16T07:28:47;20.97;;;16.90;;
7003;SDS011;3542;48.812;9.146;2023-05-16T07:31:13;22.87;;;16.00;;
7003;SDS011;3542;48.812;9.146;2023-05-16T07:33:40;19.57;;;15.80;;
7003;SDS011;3542;48.812;9.146;2023-05-16T07:36:06;20.43;;;14.30;;
7003;SDS011;3542;48.812;9.146;2023-05-16T07:38:32;17.60;;;13.87;;
7003;SDS011;3542;48.812;9.146;2023-05-16T07:40:57;16.93;;;15.20;;
7003;SDS011;3542;48.812;9.146;2023-05-16T07:43:23;19.20;;;14.30;;
7003;SDS011;3542;48.812;9.146;2023-05-16T07:45:48;17.00;;;13.43;;
7003;SDS011;3542;48.812;9.146;2023-05-16T07:48:14;16.43;;;12.63;;
7003;SDS011;3542;48.812;9.146;2023-05-16T07:50:40;15.97;;;13.47;;
7003;SDS011;3542;48.812;9.146;2023-05-16T07:53:06;16.30;;;13.20;;
7003;SDS011;3542;48.812;9.146;2023-05-16T07:55:32;15.83;;;12.90;;
7003;SDS011;3542;48.812;9.146;2023-05-16T07:57:57;15.10;;;13.07;;
7003;SDS011;3542;48.812;9.146;2023-05-16T08:00:23;15.63;;;12.80;;
7003;SDS011;3542;48.812;9.146;2023-05-16T08:02:48;17.70;;;13.77;;
7003;SDS011;3542;48.812;9.146;2023-05-16T08:05:14;17.73;;;12.30;;
7003;SDS011;3542;48.812;9.146;2023-05-16T08:07:40;14.60;;;13.10;;
7003;SDS011;3542;48.812;9.146;2023-05-16T08:10:06;14.47;;;12.80;;
7003;SDS011;3542;48.812;9.146;2023-05-16T08:12:32;20.23;;;14.00;;
7003;SDS011;3542;48.812;9.146;2023-05-16T08:14:57;17.40;;;14.47;;
7003;SDS011;3542;48.812;9.146;2023-05-16T08:17:23;16.73;;;14.17;;
7003;SDS011;3542;48.812;9.146;2023-05-16T08:19:48;18.03;;;14.70;;
7003;SDS011;3542;48.812;9.146;2023-05-16T08:22:14;18.90;;;15.27;;
7003;SDS011;3542;48.812;9.146;2023-05-16T08:24:39;21.93;;;16.70;;
7003;SDS011;3542;48.812;9.146;2023-05-16T08:27:05;16.00;;;14.10;;
7003;SDS011;3542;48.812;9.146;2023-05-16T08:29:33;18.40;;;15.50;;
7003;SDS011;3542;48.812;9.146;2023-05-16T08:31:58;19.83;;;15.50;;
7003;SDS011;3542;48.812;9.146;2023-05-16T08:34:24;17.20;;;15.00;;
7003;SDS011;3542;48.812;9.146;2023-05-16T08:36:53;20.37;;;14.70;;
7003;SDS011;3542;48.812;9.146;2023-05-16T08:39:18;19.43;;;15.40;;
7003;SDS011;3542;48.812;9.146;2023-05-16T08:41:44;20.87;;;16.10;;
7003;SDS011;3542;48.812;9.146;2023-05-16T08:44:13;22.70;;;16.30;;
7003;SDS011;3542;48.812;9.146;2023-05-16T08:46:46;19.03;;;15.27;;
7003;SDS011;3542;48.812;9.146;2023-05-16T08:49:15;23.70;;;17.20;;
7003;SDS011;3542;48.812;9.146;2023-05-16T08:51:42;24.87;;;17.47;;
7003;SDS011;3542;48.812;9.146;2023-05-16T08:54:10;24.23;;;17.90;;
7003;SDS011;3542;48.812;9.146;2023-05-16T08:56:37;22.60;;;18.30;;
7003;SDS011;3542;48.812;9.146;2023-05-16T08:59:03;24.53;;;17.30;;
7003;SDS011;3542;48.812;9.146;2023-05-16T09:01:29;25.73;;;17.70;;
7003;SDS011;3542;48.812;9.146;2023-05-16T09:03:56;22.60;;;18.90;;
7003;SDS011;3542;48.812;9.146;2023-05-16T09:06:22;22.03;;;17.43;;
7003;SDS011;3542;48.812;9.146;2023-05-16T09:08:48;25.70;;;20.77;;
7003;SDS011;3542;48.812;9.146;2023-05-16T09:11:14;24.13;;;18.20;;
7003;SDS011;3542;48.812;9.146;2023-05-16T09:13:40;25.60;;;20.13;;
7003;SDS011;3542;48.812;9.146;2023-05-16T09:16:12;37.60;;;23.23;;
7003;SDS011;3542;48.812;9.146;2023-05-16T09:18:41;31.70;;;21.20;;
7003;SDS011;3542;48.812;9.146;2023-05-16T09:21:08;32.90;;;22.57;;
7003;SDS011;3542;48.812;9.146;2023-05-16T09:23:35;32.60;;;22.10;;
7003;SDS011;3542;48.812;9.146;2023-05-16T09:26:02;30.80;;;20.97;;
7003;SDS011;3542;48.812;9.146;2023-05-16T09:28:29;40.50;;;23.17;;
7003;SDS011;3542;48.812;9.146;2023-05-16T09:30:55;32.37;;;22.70;;
7003;SDS011;3542;48.812;9.146;2023-05-16T09:33:23;27.40;;;21.17;;
7003;SDS011;3542;48.812;9.146;2023-05-16T09:35:58;33.03;;;20.80;;
7003;SDS011;3542;48.812;9.146;2023-05-16T09:38:25;32.43;;;21.70;;
7003;SDS011;3542;48.812;9.146;2023-05-16T09:40:52;31.63;;;22.30;;
7003;SDS011;3542;48.812;9.146;2023-05-16T09:43:20;27.73;;;20.30;;
7003;SDS011;3542;48.812;9.146;2023-05-16T09:45:50;30.80;;;19.73;;
7003;SDS011;3542;48.812;9.146;2023-05-16T09:48:17;35.20;;;22.57;;
7003;SDS011;3542;48.812;9.146;2023-05-16T09:50:48;28.10;;;20.37;;
7003;SDS011;3542;48.812;9.146;2023-05-16T09:53:16;27.87;;;20.83;;
7003;SDS011;3542;48.812;9.146;2023-05-16T09:55:42;30.53;;;20.90;;
7003;SDS011;3542;48.812;9.146;2023-05-16T09:58:08;27.03;;;19.03;;
7003;SDS011;3542;48.812;9.146;2023-05-16T10:00:34;28.40;;;21.10;;
7003;SDS011;3542;48.812;9.146;2023-05-16T10:03:00;30.23;;;20.20;;
7003;SDS011;3542;48.812;9.146;2023-05-16T10:05:27;27.63;;;20.53;;
7003;SDS011;3542;48.812;9.146;2023-05-16T10:07:54;23.80;;;16.93;;
7003;SDS011;3542;48.812;9.146;2023-05-16T10:10:20;25.77;;;17.10;;
7003;SDS011;3542;48.812;9.146;2023-05-16T10:12:46;22.40;;;16.23;;
7003;SDS011;3542;48.812;9.146;2023-05-16T10:15:13;23.70;;;16.00;;
7003;SDS011;3542;48.812;9.146;2023-05-16T10:17:41;21.53;;;15.57;;
7003;SDS011;3542;48.812;9.146;2023-05-16T10:20:09;25.33;;;17.00;;
7003;SDS011;3542;48.812;9.146;2023-05-16T10:22:38;26.60;;;17.07;;
7003;SDS011;3542;48.812;9.146;2023-05-16T10:28:00;24.00;;;17.70;;
7003;SDS011;3542;48.812;9.146;2023-05-16T10:30:26;20.50;;;15.87;;
7003;SDS011;3542;48.812;9.146;2023-05-16T10:32:55;27.80;;;17.37;;
7003;SDS011;3542;48.812;9.146;2023-05-16T10:35:21;26.90;;;17.77;;
7003;SDS011;3542;48.812;9.146;2023-05-16T10:37:50;26.57;;;17.13;;
7003;SDS011;3542;48.812;9.146;2023-05-16T10:40:16;31.43;;;18.40;;
7003;SDS011;3542;48.812;9.146;2023-05-16T10:42:58;21.50;;;15.83;;
7003;SDS011;3542;48.812;9.146;2023-05-16T10:45:25;29.93;;;17.83;;
7003;SDS011;3542;48.812;9.146;2023-05-16T10:47:51;27.93;;;16.57;;
7003;SDS011;3542;48.812;9.146;2023-05-16T10:53:15;22.87;;;16.80;;
7003;SDS011;3542;48.812;9.146;2023-05-16T10:55:44;28.97;;;16.70;;
7003;SDS011;3542;48.812;9.146;2023-05-16T11:01:13;24.53;;;15.53;;
7003;SDS011;3542;48.812;9.146;2023-05-16T11:06:26;28.20;;;16.10;;
7003;SDS011;3542;48.812;9.146;2023-05-16T11:14:05;26.33;;;15.30;;
7003;SDS011;3542;48.812;9.146;2023-05-16T11:16:32;19.50;;;14.23;;
7003;SDS011;3542;48.812;9.146;2023-05-16T11:19:05;19.50;;;13.00;;
7003;SDS011;3542;48.812;9.146;2023-05-16T11:24:36;15.67;;;10.90;;
7003;SDS011;3542;48.812;9.146;2023-05-16T11:27:03;16.20;;;10.47;;
7003;SDS011;3542;48.812;9.146;2023-05-16T11:29:31;10.83;;;9.07;;
7003;SDS011;3542;48.812;9.146;2023-05-16T11:32:00;13.67;;;9.97;;
7003;SDS011;3542;48.812;9.146;2023-05-16T11:34:29;13.10;;;9.10;;
7003;SDS011;3542;48.812;9.146;2023-05-16T11:36:55;10.13;;;8.50;;
7003;SDS011;3542;48.812;9.146;2023-05-16T11:39:21;9.07;;;7.20;;
7003;SDS011;3542;48.812;9.146;2023-05-16T11:41:50;8.90;;;7.17;;
7003;SDS011;3542;48.812;9.146;2023-05-16T11:44:17;9.23;;;7.60;;
7003;SDS011;3542;48.812;9.146;2023-05-16T11:46:42;10.07;;;7.67;;
7003;SDS011;3542;48.812;9.146;2023-05-16T11:49:08;8.60;;;7.40;;
7003;SDS011;3542;48.812;9.146;2023-05-16T11:51:36;8.60;;;7.43;;
7003;SDS011;3542;48.812;9.146;2023-05-16T11:54:02;10.87;;;7.90;;
7003;SDS011;3542;48.812;9.146;2023-05-16T11:56:32;10.03;;;8.10;;
7003;SDS011;3542;48.812;9.146;2023-05-16T11:59:01;8.47;;;7.13;;
7003;SDS011;3542;48.812;9.146;2023-05-16T12:01:37;9.10;;;6.83;;
7003;SDS011;3542;48.812;9.146;2023-05-16T12:04:13;10.13;;;7.30;;
7003;SDS011;3542;48.812;9.146;2023-05-16T12:06:43;9.30;;;7.97;;
7003;SDS011;3542;48.812;9.146;2023-05-16T12:09:12;8.03;;;7.03;;
7003;SDS011;3542;48.812;9.146;2023-05-16T12:11:39;9.03;;;7.60;;
7003;SDS011;3542;48.812;9.146;2023-05-16T12:14:06;11.97;;;7.90;;
7003;SDS011;3542;48.812;9.146;2023-05-16T12:16:33;13.00;;;8.30;;
7003;SDS011;3542;48.812;9.146;2023-05-16T12:19:04;11.30;;;7.70;;
7003;SDS011;3542;48.812;9.146;2023-05-16T12:21:30;8.53;;;7.30;;
7003;SDS011;3542;48.812;9.146;2023-05-16T12:23:56;8.83;;;6.97;;
7003;SDS011;3542;48.812;9.146;2023-05-16T12:26:26;8.30;;;6.60;;
7003;SDS011;3542;48.812;9.146;2023-05-16T12:28:56;8.23;;;5.90;;
7003;SDS011;3542;48.812;9.146;2023-05-16T12:31:27;7.93;;;6.00;;
7003;SDS011;3542;48.812;9.146;2023-05-16T12:33:56;5.90;;;5.30;;
7003;SDS011;3542;48.812;9.146;2023-05-16T12:36:22;7.07;;;5.30;;
7003;SDS011;3542;48.812;9.146;2023-05-16T12:38:50;5.10;;;4.10;;
7003;SDS011;3542;48.812;9.146;2023-05-16T12:41:20;5.07;;;4.47;;
7003;SDS011;3542;48.812;9.146;2023-05-16T12:43:49;5.57;;;4.40;;
7003;SDS011;3542;48.812;9.146;2023-05-16T12:46:15;4.60;;;4.23;;
7003;SDS011;3542;48.812;9.146;2023-05-16T12:48:43;6.77;;;5.03;;
7003;SDS011;3542;48.812;9.146;2023-05-16T12:53:47;4.40;;;4.00;;
7003;SDS011;3542;48.812;9.146;2023-05-16T12:56:13;4.97;;;4.63;;
7003;SDS011;3542;48.812;9.146;2023-05-16T12:58:40;4.13;;;3.83;;
7003;SDS011;3542;48.812;9.146;2023-05-16T13:01:06;4.30;;;4.00;;
7003;SDS011;3542;48.812;9.146;2023-05-16T13:03:32;5.60;;;4.10;;
7003;SDS011;3542;48.812;9.146;2023-05-16T13:05:58;3.73;;;3.37;;
7003;SDS011;3542;48.812;9.146;2023-05-16T13:08:25;6.40;;;3.87;;
7003;SDS011;3542;48.812;9.146;2023-05-16T13:10:51;3.87;;;3.57;;
7003;SDS011;3542;48.812;9.146;2023-05-16T13:13:17;4.07;;;3.77;;
7003;SDS011;3542;48.812;9.146;2023-05-16T13:15:45;4.10;;;3.80;;
7003;SDS011;3542;48.812;9.146;2023-05-16T13:18:11;4.30;;;3.53;;
7003;SDS011;3542;48.812;9.146;2023-05-16T13:20:37;3.03;;;2.77;;
7003;SDS011;3542;48.812;9.146;2023-05-16T13:23:03;3.20;;;2.97;;
7003;SDS011;3542;48.812;9.146;2023-05-16T13:25:29;5.13;;;3.40;;
7003;SDS011;3542;48.812;9.146;2023-05-16T13:27:55;3.37;;;3.17;;
7003;SDS011;3542;48.812;9.146;2023-05-16T13:30:20;4.80;;;2.93;;
7003;SDS011;3542;48.812;9.146;2023-05-16T13:32:46;2.90;;;2.70;;
7003;SDS011;3542;48.812;9.146;2023-05-16T13:35:13;2.90;;;2.70;;
7003;SDS011;3542;48.812;9.146;2023-05-16T13:37:38;5.17;;;2.87;;
7003;SDS011;3542;48.812;9.146;2023-05-16T13:40:05;4.07;;;2.60;;
7003;SDS011;3542;48.812;9.146;2023-05-16T13:42:35;2.80;;;2.30;;
7003;SDS011;3542;48.812;9.146;2023-05-16T13:45:04;2.30;;;2.20;;
7003;SDS011;3542;48.812;9.146;2023-05-16T13:47:30;3.33;;;3.10;;
7003;SDS011;3542;48.812;9.146;2023-05-16T13:49:59;3.03;;;2.73;;
7003;SDS011;3542;48.812;9.146;2023-05-16T13:52:33;3.13;;;2.83;;
7003;SDS011;3542;48.812;9.146;2023-05-16T13:54:58;2.33;;;2.20;;
7003;SDS011;3542;48.812;9.146;2023-05-16T13:57:24;1.97;;;1.87;;
7003;SDS011;3542;48.812;9.146;2023-05-16T13:59:51;2.10;;;2.00;;
7003;SDS011;3542;48.812;9.146;2023-05-16T14:02:16;2.53;;;2.33;;
7003;SDS011;3542;48.812;9.146;2023-05-16T14:04:42;3.33;;;3.13;;
7003;SDS011;3542;48.812;9.146;2023-05-16T14:07:08;3.90;;;2.37;;
7003;SDS011;3542;48.812;9.146;2023-05-16T14:09:33;2.63;;;2.43;;
7003;SDS011;3542;48.812;9.146;2023-05-16T14:12:01;2.93;;;2.60;;
7003;SDS011;3542;48.812;9.146;2023-05-16T14:14:32;2.23;;;2.00;;
7003;SDS011;3542;48.812;9.146;2023-05-16T14:16:58;2.77;;;2.57;;
7003;SDS011;3542;48.812;9.146;2023-05-16T14:19:24;2.70;;;2.50;;
7003;SDS011;3542;48.812;9.146;2023-05-16T14:21:50;7.23;;;2.60;;
7003;SDS011;3542;48.812;9.146;2023-05-16T14:24:15;2.63;;;2.50;;
7003;SDS011;3542;48.812;9.146;2023-05-16T14:26:41;2.93;;;2.63;;
7003;SDS011;3542;48.812;9.146;2023-05-16T14:29:06;5.87;;;5.33;;
7003;SDS011;3542;48.812;9.146;2023-05-16T14:31:32;2.20;;;2.03;;
7003;SDS011;3542;48.812;9.146;2023-05-16T14:33:57;2.60;;;2.17;;
7003;SDS011;3542;48.812;9.146;2023-05-16T14:36:23;17.20;;;2.90;;
7003;SDS011;3542;48.812;9.146;2023-05-16T14:38:49;2.80;;;1.50;;
7003;SDS011;3542;48.812;9.146;2023-05-16T14:41:15;3.27;;;2.07;;
7003;SDS011;3542;48.812;9.146;2023-05-16T14:43:40;2.33;;;1.63;;
7003;SDS011;3542;48.812;9.146;2023-05-16T14:46:06;2.00;;;1.50;;
7003;SDS011;3542;48.812;9.146;2023-05-16T14:48:31;2.30;;;1.87;;
7003;SDS011;3542;48.812;9.146;2023-05-16T14:50:57;2.30;;;1.80;;
7003;SDS011;3542;48.812;9.146;2023-05-16T14:53:23;5.23;;;1.47;;
7003;SDS011;3542;48.812;9.146;2023-05-16T14:55:48;1.40;;;1.30;;
7003;SDS011;3542;48.812;9.146;2023-05-16T14:58:14;2.80;;;1.77;;
7003;SDS011;3542;48.812;9.146;2023-05-16T15:00:40;3.07;;;1.20;;
7003;SDS011;3542;48.812;9.146;2023-05-16T15:03:05;3.70;;;1.67;;
7003;SDS011;3542;48.812;9.146;2023-05-16T15:05:31;2.83;;;1.53;;
7003;SDS011;3542;48.812;9.146;2023-05-16T15:07:57;4.63;;;1.47;;
7003;SDS011;3542;48.812;9.146;2023-05-16T15:10:25;2.33;;;1.50;;
7003;SDS011;3542;48.812;9.146;2023-05-16T15:12:51;2.83;;;1.40;;
7003;SDS011;3542;48.812;9.146;2023-05-16T15:15:17;6.57;;;1.53;;
7003;SDS011;3542;48.812;9.146;2023-05-16T15:17:42;5.57;;;1.90;;
7003;SDS011;3542;48.812;9.146;2023-05-16T15:20:08;5.30;;;1.57;;
7003;SDS011;3542;48.812;9.146;2023-05-16T15:22:35;3.10;;;1.40;;
7003;SDS011;3542;48.812;9.146;2023-05-16T15:25:05;1.63;;;1.43;;
7003;SDS011;3542;48.812;9.146;2023-05-16T15:27:31;2.83;;;1.47;;
7003;SDS011;3542;48.812;9.146;2023-05-16T15:29:57;1.80;;;1.70;;
7003;SDS011;3542;48.812;9.146;2023-05-16T15:32:23;2.00;;;1.83;;
7003;SDS011;3542;48.812;9.146;2023-05-16T15:34:48;4.00;;;2.07;;
7003;SDS011;3542;48.812;9.146;2023-05-16T15:37:14;14.00;;;1.83;;
7003;SDS011;3542;48.812;9.146;2023-05-16T15:39:40;5.03;;;2.13;;
7003;SDS011;3542;48.812;9.146;2023-05-16T15:42:07;7.63;;;2.03;;
7003;SDS011;3542;48.812;9.146;2023-05-16T15:44:33;6.57;;;1.97;;
7003;SDS011;3542;48.812;9.146;2023-05-16T15:47:02;6.90;;;2.37;;
7003;SDS011;3542;48.812;9.146;2023-05-16T15:49:27;7.17;;;2.40;;
7003;SDS011;3542;48.812;9.146;2023-05-16T15:51:53;2.90;;;2.10;;
7003;SDS011;3542;48.812;9.146;2023-05-16T15:54:19;7.50;;;1.93;;
7003;SDS011;3542;48.812;9.146;2023-05-16T15:56:44;3.77;;;1.80;;
7003;SDS011;3542;48.812;9.146;2023-05-16T15:59:10;4.83;;;2.00;;
7003;SDS011;3542;48.812;9.146;2023-05-16T16:01:36;1.97;;;1.60;;
7003;SDS011;3542;48.812;9.146;2023-05-16T16:04:01;4.90;;;2.57;;
7003;SDS011;3542;48.812;9.146;2023-05-16T16:06:27;2.70;;;1.83;;
7003;SDS011;3542;48.812;9.146;2023-05-16T16:08:52;1.97;;;1.73;;
7003;SDS011;3542;48.812;9.146;2023-05-16T16:11:21;6.67;;;2.67;;
7003;SDS011;3542;48.812;9.146;2023-05-16T16:13:47;4.30;;;2.20;;
7003;SDS011;3542;48.812;9.146;2023-05-16T16:16:13;2.63;;;1.80;;
7003;SDS011;3542;48.812;9.146;2023-05-16T16:18:39;4.10;;;1.90;;
7003;SDS011;3542;48.812;9.146;2023-05-16T16:21:06;2.70;;;1.43;;
7003;SDS011;3542;48.812;9.146;2023-05-16T16:23:34;6.67;;;1.60;;
7003;SDS011;3542;48.812;9.146;2023-05-16T16:25:59;2.40;;;1.97;;
7003;SDS011;3542;48.812;9.146;2023-05-16T16:28:25;1.67;;;1.40;;
7003;SDS011;3542;48.812;9.146;2023-05-16T16:30:50;6.70;;;1.97;;
7003;SDS011;3542;48.812;9.146;2023-05-16T16:33:16;4.30;;;1.77;;
7003;SDS011;3542;48.812;9.146;2023-05-16T16:35:42;6.20;;;2.00;;
7003;SDS011;3542;48.812;9.146;2023-05-16T16:38:07;2.33;;;2.00;;
7003;SDS011;3542;48.812;9.146;2023-05-16T16:40:33;4.33;;;1.90;;
7003;SDS011;3542;48.812;9.146;2023-05-16T16:42:59;4.10;;;2.33;;
7003;SDS011;3542;48.812;9.146;2023-05-16T16:45:25;7.20;;;1.87;;